createdAt,value
2022-10-25T00:01:26.486Z,0.98
2022-10-25T00:03:54.233Z,1.08
2022-10-25T00:06:22.261Z,1.00
2022-10-25T00:08:50.072Z,1.00
2022-10-25T00:11:20.919Z,1.08
2022-10-25T00:13:49.654Z,0.68
2022-10-25T00:16:19.763Z,0.98
2022-10-25T00:18:47.525Z,0.70
2022-10-25T00:21:15.203Z,1.13
2022-10-25T00:23:42.929Z,1.02
2022-10-25T00:26:11.230Z,1.15
2022-10-25T00:28:40.320Z,1.00
2022-10-25T00:31:08.988Z,0.93
2022-10-25T00:33:37.088Z,1.23
2022-10-25T00:36:06.154Z,0.70
2022-10-25T00:38:33.861Z,1.00
2022-10-25T00:41:01.580Z,1.70
2022-10-25T00:43:33.950Z,1.23
2022-10-25T00:46:03.082Z,0.98
2022-10-25T00:48:30.777Z,0.85
2022-10-25T00:50:58.476Z,1.20
2022-10-25T00:53:28.288Z,1.05
2022-10-25T00:55:58.644Z,0.88
2022-10-25T00:58:26.991Z,0.90
2022-10-25T01:00:56.498Z,0.80
2022-10-25T01:03:25.561Z,1.13
2022-10-25T01:05:53.256Z,1.20
2022-10-25T01:08:21.141Z,0.80
2022-10-25T01:10:48.995Z,0.88
2022-10-25T01:13:16.765Z,3.08
2022-10-25T01:15:48.511Z,0.90
2022-10-25T01:18:17.328Z,1.45
2022-10-25T01:21:11.625Z,0.98
2022-10-25T01:24:01.128Z,1.42
2022-10-25T01:26:37.335Z,0.88
2022-10-25T01:29:26.917Z,0.70
2022-10-25T01:31:56.240Z,1.25
2022-10-25T01:34:26.422Z,0.70
2022-10-25T01:36:56.541Z,1.00
2022-10-25T01:39:26.416Z,1.08
2022-10-25T01:41:58.066Z,0.90
2022-10-25T01:44:32.555Z,0.60
2022-10-25T01:47:03.367Z,1.08
2022-10-25T01:49:36.151Z,0.80
2022-10-25T01:52:04.028Z,0.65
2022-10-25T01:54:31.701Z,1.48
2022-10-25T01:57:09.891Z,1.05
2022-10-25T01:59:45.762Z,0.90
2022-10-25T02:02:17.879Z,1.40
2022-10-25T02:04:48.746Z,0.60
2022-10-25T02:07:18.219Z,1.05
2022-10-25T02:09:49.821Z,0.90
2022-10-25T02:12:20.340Z,1.35
2022-10-25T02:14:51.938Z,0.98
2022-10-25T02:17:22.257Z,0.90
2022-10-25T02:19:51.759Z,1.17
2022-10-25T02:22:20.656Z,0.90
2022-10-25T02:24:48.415Z,1.10
2022-10-25T02:27:16.151Z,1.08
2022-10-25T02:29:43.899Z,0.80
2022-10-25T02:32:11.607Z,0.90
2022-10-25T02:34:40.733Z,0.85
2022-10-25T02:37:08.436Z,0.88
2022-10-25T02:39:36.129Z,0.73
2022-10-25T02:42:04.465Z,0.65
2022-10-25T02:44:32.500Z,1.20
2022-10-25T02:47:00.199Z,1.10
2022-10-25T02:49:28.421Z,0.98
2022-10-25T02:51:57.497Z,1.83
2022-10-25T02:54:25.204Z,0.88
2022-10-25T02:56:52.940Z,0.90
2022-10-25T02:59:21.191Z,0.88
2022-10-25T03:01:49.011Z,0.95
2022-10-25T03:04:16.803Z,0.80
2022-10-25T03:06:44.560Z,0.70
2022-10-25T03:09:13.571Z,0.85
2022-10-25T03:11:41.260Z,0.90
2022-10-25T03:14:08.954Z,1.45
2022-10-25T03:16:36.701Z,1.30
2022-10-25T03:19:04.515Z,1.05
2022-10-25T03:21:32.224Z,1.00
2022-10-25T03:23:59.967Z,0.70
2022-10-25T03:26:28.955Z,1.25
2022-10-25T03:28:56.626Z,1.17
2022-10-25T03:31:25.098Z,1.23
2022-10-25T03:33:52.786Z,0.90
2022-10-25T03:36:20.502Z,0.90
2022-10-25T03:38:48.204Z,1.00
2022-10-25T03:41:15.872Z,1.33
2022-10-25T03:43:44.892Z,1.00
2022-10-25T03:46:12.599Z,0.70
2022-10-25T03:48:40.281Z,1.08
2022-10-25T03:51:08.010Z,1.38
2022-10-25T03:53:35.716Z,1.27
2022-10-25T03:56:03.403Z,0.77
2022-10-25T03:58:31.077Z,0.90
2022-10-25T04:01:00.886Z,1.00
2022-10-25T04:03:28.711Z,1.08
2022-10-25T04:05:56.409Z,1.00
2022-10-25T04:08:24.101Z,1.00
2022-10-25T04:10:51.800Z,0.80
2022-10-25T04:13:19.471Z,1.10
2022-10-25T04:15:47.294Z,0.80
2022-10-25T04:18:16.302Z,1.38
2022-10-25T04:20:43.981Z,1.10
2022-10-25T04:23:11.646Z,0.95
2022-10-25T04:25:39.349Z,1.17
2022-10-25T04:28:07.083Z,0.80
2022-10-25T04:30:37.927Z,1.27
2022-10-25T04:33:06.685Z,0.70
2022-10-25T04:35:35.696Z,1.02
2022-10-25T04:38:03.369Z,1.15
2022-10-25T04:40:31.120Z,0.93
2022-10-25T04:43:02.136Z,1.48
2022-10-25T04:45:29.989Z,1.15
2022-10-25T04:47:57.782Z,0.95
2022-10-25T04:50:25.544Z,1.27
2022-10-25T04:52:54.553Z,0.80
2022-10-25T04:55:22.261Z,1.17
2022-10-25T04:57:49.950Z,0.90
2022-10-25T05:00:17.780Z,1.27
2022-10-25T05:02:45.775Z,0.90
2022-10-25T05:05:13.752Z,1.10
2022-10-25T05:07:41.548Z,1.20
2022-10-25T05:10:10.843Z,0.90
2022-10-25T05:12:38.519Z,0.90
2022-10-25T05:15:06.849Z,1.10
2022-10-25T05:17:34.517Z,1.08
2022-10-25T05:20:02.378Z,0.80
2022-10-25T05:22:30.145Z,1.05
2022-10-25T05:24:57.985Z,0.82
2022-10-25T05:27:27.028Z,1.15
2022-10-25T05:29:54.708Z,1.13
2022-10-25T05:32:22.377Z,1.05
2022-10-25T05:34:50.024Z,0.95
2022-10-25T05:37:17.699Z,1.00
2022-10-25T05:39:45.427Z,0.73
2022-10-25T05:42:13.096Z,1.00
2022-10-25T05:44:42.114Z,1.02
2022-10-25T05:47:09.809Z,1.08
2022-10-25T05:49:40.098Z,1.20
2022-10-25T05:52:07.779Z,1.02
2022-10-25T05:54:35.492Z,1.23
2022-10-25T05:57:03.224Z,1.55
2022-10-25T05:59:30.921Z,1.00
2022-10-25T06:02:00.072Z,1.15
2022-10-25T06:04:28.000Z,1.75
2022-10-25T06:06:55.705Z,0.90
2022-10-25T06:09:23.501Z,1.15
2022-10-25T06:11:51.168Z,1.05
2022-10-25T06:14:18.893Z,0.80
2022-10-25T06:16:46.590Z,0.90
2022-10-25T06:19:15.585Z,1.38
2022-10-25T06:21:43.293Z,1.80
2022-10-25T06:24:11.112Z,1.10
2022-10-25T06:26:38.815Z,1.63
2022-10-25T06:29:06.697Z,1.23
2022-10-25T06:31:34.454Z,0.70
2022-10-25T06:34:02.477Z,0.95
2022-10-25T06:36:31.751Z,1.10
2022-10-25T06:39:05.762Z,1.27
2022-10-25T06:41:36.775Z,1.30
2022-10-25T06:44:06.626Z,1.40
2022-10-25T06:46:40.612Z,0.90
2022-10-25T06:49:20.227Z,0.95
2022-10-25T06:51:49.209Z,1.02
2022-10-25T06:54:16.993Z,1.23
2022-10-25T06:56:44.640Z,1.23
2022-10-25T06:59:12.322Z,1.23
2022-10-25T07:01:40.146Z,1.23
2022-10-25T07:04:07.884Z,0.98
2022-10-25T07:06:36.023Z,1.67
2022-10-25T07:09:06.153Z,1.60
2022-10-25T07:11:34.029Z,1.00
2022-10-25T07:14:02.244Z,1.10
2022-10-25T07:16:30.060Z,0.77
2022-10-25T07:18:59.224Z,1.10
2022-10-25T07:21:26.968Z,0.93
2022-10-25T07:23:54.758Z,1.02
2022-10-25T07:26:24.611Z,0.73
2022-10-25T07:28:53.146Z,0.80
2022-10-25T07:31:21.686Z,3.17
2022-10-25T07:33:49.443Z,6.20
2022-10-25T07:36:17.170Z,4.72
2022-10-25T07:38:44.904Z,4.32
2022-10-25T07:41:12.644Z,2.67
2022-10-25T07:43:41.629Z,3.97
2022-10-25T07:46:09.280Z,3.95
2022-10-25T07:48:36.947Z,3.88
2022-10-25T07:51:05.334Z,3.45
2022-10-25T07:53:33.313Z,3.67
2022-10-25T07:56:01.022Z,3.65
2022-10-25T07:58:28.699Z,3.80
2022-10-25T08:01:02.954Z,7.72
2022-10-25T08:03:30.828Z,5.10
2022-10-25T08:05:58.600Z,9.70
2022-10-25T08:08:26.292Z,3.92
2022-10-25T08:10:53.970Z,6.15
2022-10-25T08:13:21.615Z,6.43
2022-10-25T08:15:52.170Z,4.30
2022-10-25T08:18:21.148Z,8.00
2022-10-25T08:21:01.907Z,8.77
2022-10-25T08:23:31.220Z,8.90
2022-10-25T08:25:59.102Z,8.73
2022-10-25T08:28:26.848Z,8.07
2022-10-25T08:30:55.216Z,8.80
2022-10-25T08:33:24.474Z,8.55
2022-10-25T08:35:52.164Z,9.80
2022-10-25T08:38:19.831Z,5.72
2022-10-25T08:40:52.386Z,5.85
2022-10-25T08:43:30.503Z,10.00
2022-10-25T08:45:59.219Z,10.68
2022-10-25T08:48:30.045Z,12.68
2022-10-25T08:50:59.467Z,8.48
2022-10-25T08:53:28.759Z,9.80
2022-10-25T08:56:15.539Z,8.65
2022-10-25T08:58:46.192Z,7.75
2022-10-25T09:01:15.693Z,14.52
2022-10-25T09:03:44.771Z,10.65
2022-10-25T09:06:17.347Z,8.55
2022-10-25T09:08:52.731Z,13.07
2022-10-25T09:11:26.490Z,9.20
2022-10-25T09:13:55.888Z,8.30
2022-10-25T09:16:26.219Z,12.95
2022-10-25T09:18:56.982Z,16.65
2022-10-25T09:21:29.016Z,12.77
2022-10-25T09:24:00.876Z,20.50
2022-10-25T09:26:42.098Z,13.90
2022-10-25T09:29:24.431Z,11.40
2022-10-25T09:31:52.871Z,13.23
2022-10-25T09:34:22.479Z,11.77
2022-10-25T09:36:51.120Z,13.82
2022-10-25T09:39:21.599Z,13.55
2022-10-25T09:41:50.891Z,15.27
2022-10-25T09:44:24.594Z,13.45
2022-10-25T09:46:53.700Z,15.40
2022-10-25T09:49:25.424Z,12.02
2022-10-25T09:51:57.444Z,16.58
2022-10-25T09:54:28.122Z,14.15
2022-10-25T09:56:55.850Z,13.57
2022-10-25T09:59:23.631Z,9.60
2022-10-25T10:01:51.380Z,10.90
2022-10-25T10:04:26.575Z,9.68
2022-10-25T10:06:58.807Z,11.95
2022-10-25T10:09:26.692Z,13.52
2022-10-25T10:11:54.411Z,10.88
2022-10-25T10:14:29.623Z,10.40
2022-10-25T10:16:57.901Z,7.65
2022-10-25T10:19:29.758Z,9.82
2022-10-25T10:21:58.147Z,8.35
2022-10-25T10:24:27.755Z,7.95
2022-10-25T10:26:57.160Z,6.97
2022-10-25T10:29:25.325Z,8.00
2022-10-25T10:31:53.787Z,10.27
2022-10-25T10:34:24.257Z,9.05
2022-10-25T10:37:04.196Z,8.98
2022-10-25T10:39:31.975Z,7.70
2022-10-25T10:42:03.981Z,7.38
2022-10-25T10:44:34.306Z,10.57
2022-10-25T10:47:02.796Z,8.98
2022-10-25T10:49:38.060Z,7.20
2022-10-25T10:52:07.152Z,8.25
2022-10-25T10:54:35.297Z,6.72
2022-10-25T10:57:04.068Z,8.05
2022-10-25T10:59:52.378Z,6.93
2022-10-25T11:02:24.465Z,6.95
2022-10-25T11:04:52.867Z,5.50
2022-10-25T11:07:27.566Z,5.32
2022-10-25T11:09:59.302Z,6.80
2022-10-25T11:12:26.954Z,5.70
2022-10-25T11:14:55.725Z,7.93
2022-10-25T11:17:24.119Z,6.43
2022-10-25T11:20:03.968Z,3.63
2022-10-25T11:25:22.973Z,4.57
2022-10-25T11:27:57.867Z,7.07
2022-10-25T11:30:25.926Z,8.35
2022-10-25T11:33:21.912Z,4.72
2022-10-25T11:36:06.867Z,4.18
2022-10-25T11:38:42.953Z,5.85
2022-10-25T11:41:16.912Z,5.28
2022-10-25T11:43:58.236Z,3.42
2022-10-25T11:46:30.770Z,3.53
2022-10-25T11:49:06.529Z,6.30
2022-10-25T11:51:37.517Z,4.80
2022-10-25T11:54:14.392Z,3.03
2022-10-25T11:56:46.981Z,6.28
2022-10-25T11:59:17.497Z,3.22
2022-10-25T12:01:58.922Z,4.07
2022-10-25T12:04:38.275Z,4.63
2022-10-25T12:07:07.847Z,3.78
2022-10-25T12:09:42.086Z,4.30
2022-10-25T12:12:11.841Z,2.92
2022-10-25T12:14:40.243Z,4.05
2022-10-25T12:17:12.903Z,6.90
2022-10-25T12:19:42.832Z,3.45
2022-10-25T12:22:14.563Z,3.00
2022-10-25T12:24:45.959Z,3.05
2022-10-25T12:27:13.721Z,3.38
2022-10-25T12:29:43.098Z,3.75
2022-10-25T12:32:13.592Z,3.65
2022-10-25T12:34:41.865Z,2.83
2022-10-25T12:37:12.923Z,3.05
2022-10-25T12:39:42.844Z,3.08
2022-10-25T12:42:15.043Z,3.60
2022-10-25T12:44:53.472Z,2.22
2022-10-25T12:47:27.092Z,3.85
2022-10-25T12:53:04.875Z,3.60
2022-10-25T12:55:42.085Z,3.38
2022-10-25T12:58:24.760Z,4.47
2022-10-25T13:01:02.569Z,3.58
2022-10-25T13:03:51.572Z,2.38
2022-10-25T13:06:27.625Z,2.20
2022-10-25T13:08:56.225Z,3.63
2022-10-25T13:11:34.379Z,3.38
2022-10-25T13:14:02.088Z,2.85
2022-10-25T13:16:30.807Z,2.08
2022-10-25T13:22:34.243Z,2.17
2022-10-25T13:25:05.882Z,3.95
2022-10-25T13:27:36.328Z,3.05
2022-10-25T13:30:27.192Z,1.42
2022-10-25T13:33:27.120Z,2.08
2022-10-25T13:36:01.069Z,3.33
2022-10-25T13:38:29.647Z,3.22
2022-10-25T13:41:08.143Z,2.38
2022-10-25T13:43:37.229Z,2.28
2022-10-25T13:46:04.928Z,2.05
2022-10-25T13:48:34.019Z,2.83
2022-10-25T13:51:02.106Z,1.58
2022-10-25T13:53:35.984Z,2.55
2022-10-25T13:56:05.213Z,2.83
2022-10-25T13:58:47.251Z,3.20
2022-10-25T14:01:55.694Z,2.38
2022-10-25T14:04:33.948Z,3.08
2022-10-25T14:07:34.985Z,2.42
2022-10-25T14:10:03.092Z,3.05
2022-10-25T14:12:30.767Z,3.28
2022-10-25T14:15:03.213Z,2.90
2022-10-25T14:17:33.321Z,2.13
2022-10-25T14:20:02.239Z,2.47
2022-10-25T14:22:32.918Z,2.05
2022-10-25T14:25:03.126Z,2.38
2022-10-25T14:27:31.717Z,2.55
2022-10-25T14:30:30.813Z,1.98
2022-10-25T14:32:59.133Z,1.52
2022-10-25T14:35:32.535Z,2.53
2022-10-25T14:38:00.605Z,2.78
2022-10-25T14:40:30.708Z,2.42
2022-10-25T14:43:12.855Z,3.08
2022-10-25T14:45:41.960Z,2.83
2022-10-25T14:48:10.102Z,2.20
2022-10-25T14:50:37.933Z,1.70
2022-10-25T14:53:05.631Z,1.90
2022-10-25T14:55:33.397Z,3.17
2022-10-25T14:58:02.164Z,3.17
2022-10-25T15:00:30.033Z,3.25
2022-10-25T15:03:01.213Z,2.15
2022-10-25T15:05:29.047Z,1.70
2022-10-25T15:07:57.444Z,3.45
2022-10-25T15:10:37.820Z,2.00
2022-10-25T15:13:06.162Z,2.15
2022-10-25T15:15:35.507Z,2.85
2022-10-25T15:18:05.041Z,2.42
2022-10-25T15:20:33.213Z,1.73
2022-10-25T15:23:05.163Z,2.05
2022-10-25T15:25:34.872Z,2.85
2022-10-25T15:28:10.265Z,2.08
2022-10-25T15:30:39.316Z,2.35
2022-10-25T15:33:10.970Z,1.92
2022-10-25T15:35:42.535Z,2.72
2022-10-25T15:38:10.994Z,1.25
2022-10-25T15:40:39.281Z,2.25
2022-10-25T15:43:06.989Z,2.15
2022-10-25T15:45:34.781Z,2.25
2022-10-25T15:48:02.451Z,2.10
2022-10-25T15:50:31.452Z,1.75
2022-10-25T15:52:59.157Z,2.08
2022-10-25T15:55:27.849Z,2.20
2022-10-25T15:57:55.847Z,1.70
2022-10-25T16:00:27.876Z,1.58
2022-10-25T16:02:56.081Z,1.20
2022-10-25T16:05:25.105Z,1.88
2022-10-25T16:07:54.143Z,2.28
2022-10-25T16:10:23.915Z,2.67
2022-10-25T16:12:58.485Z,2.13
2022-10-25T16:15:27.379Z,2.45
2022-10-25T16:17:55.081Z,2.05
2022-10-25T16:20:23.704Z,1.85
2022-10-25T16:22:51.403Z,2.05
2022-10-25T16:25:20.641Z,1.55
2022-10-25T16:27:48.393Z,1.98
2022-10-25T16:30:21.847Z,2.85
2022-10-25T16:32:49.885Z,1.13
2022-10-25T16:35:19.439Z,1.27
2022-10-25T16:37:47.423Z,1.25
2022-10-25T16:40:15.662Z,1.55
2022-10-25T16:42:44.753Z,1.67
2022-10-25T16:45:15.411Z,1.63
2022-10-25T16:47:43.146Z,3.35
2022-10-25T16:50:10.945Z,1.40
2022-10-25T16:52:38.788Z,1.70
2022-10-25T16:55:07.541Z,1.70
2022-10-25T16:57:35.250Z,1.50
2022-10-25T17:00:05.071Z,1.42
2022-10-25T17:02:32.920Z,1.20
2022-10-25T17:05:00.764Z,2.47
2022-10-25T17:07:28.539Z,1.70
2022-10-25T17:09:56.667Z,2.17
2022-10-25T17:12:24.412Z,2.10
2022-10-25T17:14:52.102Z,1.42
2022-10-25T17:19:54.365Z,1.98
2022-10-25T17:22:22.598Z,1.70
2022-10-25T17:24:50.279Z,1.73
2022-10-25T17:27:17.969Z,1.95
2022-10-25T17:29:45.650Z,1.63
2022-10-25T17:32:13.312Z,1.60
2022-10-25T17:34:42.287Z,2.03
2022-10-25T17:37:09.943Z,1.70
2022-10-25T17:39:37.694Z,2.30
2022-10-25T17:42:05.580Z,1.33
2022-10-25T17:44:33.340Z,1.70
2022-10-25T17:47:03.104Z,1.50
2022-10-25T17:49:31.021Z,1.60
2022-10-25T17:52:00.043Z,1.65
2022-10-25T17:54:27.684Z,1.73
2022-10-25T17:56:56.336Z,1.73
2022-10-25T17:59:24.008Z,1.92
2022-10-25T18:01:51.823Z,1.88
2022-10-25T18:04:19.552Z,1.88
2022-10-25T18:06:47.260Z,1.42
2022-10-25T18:09:16.273Z,1.42
2022-10-25T18:11:44.160Z,1.70
2022-10-25T18:14:11.839Z,1.40
2022-10-25T18:16:41.297Z,1.77
2022-10-25T18:19:12.584Z,1.73
2022-10-25T18:21:40.274Z,1.40
2022-10-25T18:24:08.129Z,1.05
2022-10-25T18:26:37.143Z,1.50
2022-10-25T18:29:04.862Z,1.70
2022-10-25T18:31:32.546Z,1.15
2022-10-25T18:34:03.283Z,1.60
2022-10-25T18:36:31.318Z,1.30
2022-10-25T18:38:59.014Z,1.38
2022-10-25T18:41:28.240Z,1.20
2022-10-25T18:43:57.597Z,1.30
2022-10-25T18:46:25.672Z,1.50
2022-10-25T18:48:53.644Z,1.52
2022-10-25T18:51:22.354Z,1.20
2022-10-25T18:53:53.344Z,2.92
2022-10-25T18:56:22.233Z,1.85
2022-10-25T18:58:50.152Z,1.02
2022-10-25T19:01:20.908Z,1.58
2022-10-25T19:03:48.784Z,1.10
2022-10-25T19:06:16.418Z,1.40
2022-10-25T19:08:44.258Z,1.63
2022-10-25T19:11:13.175Z,1.58
2022-10-25T19:13:41.188Z,2.35
2022-10-25T19:16:08.968Z,1.02
2022-10-25T19:18:38.158Z,1.38
2022-10-25T19:21:06.666Z,1.38
2022-10-25T19:23:34.485Z,1.15
2022-10-25T19:26:03.262Z,1.45
2022-10-25T19:28:30.994Z,1.10
2022-10-25T19:30:58.696Z,1.20
2022-10-25T19:33:26.345Z,1.42
2022-10-25T19:36:01.756Z,1.75
2022-10-25T19:38:29.432Z,1.08
2022-10-25T19:41:00.175Z,1.17
2022-10-25T19:43:27.913Z,1.35
2022-10-25T19:45:57.655Z,1.27
2022-10-25T19:48:25.390Z,1.10
2022-10-25T19:50:53.214Z,1.25
2022-10-25T19:53:22.267Z,1.23
2022-10-25T19:55:59.069Z,1.38
2022-10-25T19:58:26.804Z,1.77
2022-10-25T20:01:04.710Z,1.25
2022-10-25T20:03:32.396Z,1.42
2022-10-25T20:06:00.608Z,1.73
2022-10-25T20:08:29.752Z,1.20
2022-10-25T20:10:58.300Z,1.70
2022-10-25T20:13:26.072Z,1.48
2022-10-25T20:15:55.524Z,1.02
2022-10-25T20:18:23.525Z,1.23
2022-10-25T20:20:53.729Z,1.48
2022-10-25T20:23:21.719Z,1.58
2022-10-25T20:25:50.816Z,1.00
2022-10-25T20:28:18.580Z,0.77
2022-10-25T20:30:46.491Z,1.38
2022-10-25T20:33:14.352Z,1.27
2022-10-25T20:35:42.948Z,1.05
2022-10-25T20:38:11.763Z,1.25
2022-10-25T20:40:39.612Z,0.85
2022-10-25T20:43:08.649Z,1.55
2022-10-25T20:45:36.349Z,1.77
2022-10-25T20:48:04.158Z,1.17
2022-10-25T20:50:31.948Z,1.10
2022-10-25T20:53:09.853Z,1.10
2022-10-25T20:55:38.627Z,1.10
2022-10-25T20:58:07.665Z,0.88
2022-10-25T21:00:35.387Z,1.10
2022-10-25T21:03:03.082Z,1.00
2022-10-25T21:05:31.132Z,1.48
2022-10-25T21:07:58.826Z,1.00
2022-10-25T21:10:26.663Z,1.20
2022-10-25T21:12:54.382Z,1.80
2022-10-25T21:15:23.409Z,1.10
2022-10-25T21:17:51.329Z,1.20
2022-10-25T21:20:19.139Z,1.60
2022-10-25T21:22:47.747Z,1.25
2022-10-25T21:25:15.614Z,1.67
2022-10-25T21:27:43.270Z,1.20
2022-10-25T21:30:11.637Z,1.23
2022-10-25T21:32:40.729Z,1.25
2022-10-25T21:35:09.108Z,1.48
2022-10-25T21:37:36.785Z,1.20
2022-10-25T21:40:04.855Z,1.23
2022-10-25T21:42:32.609Z,1.50
2022-10-25T21:45:00.375Z,0.82
2022-10-25T21:47:28.083Z,1.35
2022-10-25T21:49:57.228Z,1.33
2022-10-25T21:52:25.041Z,1.02
2022-10-25T21:54:52.731Z,1.50
2022-10-25T21:57:20.444Z,1.00
2022-10-25T21:59:48.109Z,1.20
2022-10-25T22:02:15.946Z,1.13
2022-10-25T22:04:43.948Z,1.13
2022-10-25T22:07:12.959Z,2.05
2022-10-25T22:09:40.671Z,1.05
2022-10-25T22:12:08.452Z,2.35
2022-10-25T22:14:36.106Z,1.15
2022-10-25T22:17:03.776Z,1.08
2022-10-25T22:19:31.457Z,1.02
2022-10-25T22:21:59.163Z,1.10
2022-10-25T22:24:28.137Z,1.67
2022-10-25T22:26:55.945Z,0.93
2022-10-25T22:29:23.616Z,0.80
2022-10-25T22:31:51.278Z,1.00
2022-10-25T22:34:18.956Z,1.50
2022-10-25T22:36:46.623Z,1.50
2022-10-25T22:39:14.259Z,1.13
2022-10-25T22:41:43.459Z,1.10
2022-10-25T22:44:11.379Z,0.73
2022-10-25T22:46:39.089Z,1.20
2022-10-25T22:49:07.900Z,1.05
2022-10-25T22:51:35.805Z,0.95
2022-10-25T22:54:03.459Z,1.23
2022-10-25T22:56:31.542Z,4.82
2022-10-25T22:59:01.508Z,1.30
2022-10-25T23:01:30.331Z,1.40
2022-10-25T23:03:58.523Z,0.82
2022-10-25T23:06:27.193Z,1.20
2022-10-25T23:08:55.040Z,1.45
2022-10-25T23:11:23.509Z,2.08
2022-10-25T23:13:51.216Z,1.08
2022-10-25T23:16:20.398Z,1.25
2022-10-25T23:18:48.109Z,1.20
2022-10-25T23:21:17.881Z,1.10
2022-10-25T23:23:45.708Z,1.40
2022-10-25T23:26:15.014Z,1.45
2022-10-25T23:28:42.679Z,1.40
2022-10-25T23:31:11.011Z,1.27
2022-10-25T23:33:40.284Z,1.27
2022-10-25T23:36:10.093Z,0.90
2022-10-25T23:38:37.821Z,1.52
2022-10-25T23:41:05.771Z,1.00
2022-10-25T23:43:33.436Z,1.35
2022-10-25T23:46:01.136Z,1.20
2022-10-25T23:48:28.802Z,1.38
2022-10-25T23:50:58.488Z,1.20
2022-10-25T23:53:26.438Z,1.05
2022-10-25T23:55:54.159Z,1.10
2022-10-25T23:58:21.923Z,1.17
